Terminal Aerodrome Forecast
Issued by NWS

Home | Current Version | Previous Version | Text Only | Print | Product List | Glossary On
Versions: 1 2 3 4 5 6 7 8 9 10 11 12 13 14 15 16
000
FTUS46 KHNX 191148
TAFVIS
TAF
KVIS 191148Z 1912/2012 VRB03KT P6SM BKN150
     FM191900 13005KT P6SM BKN100
     FM192300 13007KT P6SM BKN080
     FM200100 13005KT P6SM VCSH OVC060
     FM200900 VRB04KT 4SM BR BKN035
      TEMPO 2009/2012 2SM BR BKN007=

USA.gov is the U.S. government's official web portal to all federal, state and local government web resources and services.